createdAt,value
2023-01-23T00:00:47.305Z,100470.13
2023-01-23T00:03:14.757Z,100459.28
2023-01-23T00:05:42.050Z,100459.62
2023-01-23T00:08:09.235Z,100460.78
2023-01-23T00:10:37.857Z,100456.22
2023-01-23T00:13:05.206Z,100445.12
2023-01-23T00:15:33.331Z,100441.94
2023-01-23T00:18:00.791Z,100448.53
2023-01-23T00:20:27.968Z,100438.44
2023-01-23T00:22:55.402Z,100435.94
2023-01-23T00:25:22.877Z,100444.56
2023-01-23T00:27:50.132Z,100447.00
2023-01-23T00:30:17.679Z,100444.03
2023-01-23T00:32:45.268Z,100448.00
2023-01-23T00:35:12.430Z,100442.72
2023-01-23T00:37:39.625Z,100438.38
2023-01-23T00:40:07.472Z,100448.56
2023-01-23T00:42:34.656Z,100441.50
2023-01-23T00:45:01.853Z,100438.53
2023-01-23T00:47:29.292Z,100428.09
2023-01-23T00:49:58.858Z,100439.03
2023-01-23T00:52:26.401Z,100438.88
2023-01-23T00:54:54.401Z,100437.00
2023-01-23T00:57:21.682Z,100455.59
2023-01-23T00:59:48.870Z,100454.22
2023-01-23T01:02:16.385Z,100446.34
2023-01-23T01:04:43.593Z,100438.19
2023-01-23T01:07:10.968Z,100441.53
2023-01-23T01:09:38.530Z,100435.50
2023-01-23T01:12:06.542Z,100442.09
2023-01-23T01:14:33.870Z,100442.22
2023-01-23T01:17:01.441Z,100431.97
2023-01-23T01:19:29.488Z,100426.72
2023-01-23T01:21:56.710Z,100430.63
2023-01-23T01:24:24.212Z,100425.12
2023-01-23T01:26:51.698Z,100423.59
2023-01-23T01:29:18.905Z,100425.81
2023-01-23T01:31:46.639Z,100418.47
2023-01-23T01:34:14.023Z,100418.41
2023-01-23T01:36:41.197Z,100415.03
2023-01-23T01:39:08.670Z,100420.28
2023-01-23T01:41:36.468Z,100424.13
2023-01-23T01:44:03.741Z,100431.03
2023-01-23T01:46:32.749Z,100421.78
2023-01-23T01:49:07.198Z,100431.06
2023-01-23T01:51:43.532Z,100422.84
2023-01-23T01:54:10.901Z,100422.41
2023-01-23T01:56:44.737Z,100419.00
2023-01-23T01:59:11.909Z,100414.59
2023-01-23T02:01:39.609Z,100415.06
2023-01-23T02:04:07.153Z,100412.97
2023-01-23T02:06:34.337Z,100411.06
2023-01-23T02:09:20.471Z,100406.66
2023-01-23T02:11:48.695Z,100404.19
2023-01-23T02:14:18.972Z,100404.38
2023-01-23T02:16:50.587Z,100404.81
2023-01-23T02:19:21.041Z,100412.12
2023-01-23T02:21:48.297Z,100406.47
2023-01-23T02:24:27.478Z,100416.59
2023-01-23T02:26:54.996Z,100408.16
2023-01-23T02:29:25.834Z,100410.47
2023-01-23T02:31:56.249Z,100410.56
2023-01-23T02:34:26.111Z,100412.84
2023-01-23T02:36:53.802Z,100409.19
2023-01-23T02:39:21.397Z,100409.59
2023-01-23T02:41:50.345Z,100417.25
2023-01-23T02:44:28.005Z,100409.91
2023-01-23T02:46:56.993Z,100402.75
2023-01-23T02:49:25.668Z,100400.72
2023-01-23T02:51:54.163Z,100403.59
2023-01-23T02:54:22.485Z,100389.25
2023-01-23T02:56:49.977Z,100391.53
2023-01-23T02:59:36.120Z,100389.03
2023-01-23T03:02:04.466Z,100374.53
2023-01-23T03:04:31.724Z,100384.44
2023-01-23T03:06:59.423Z,100378.00
2023-01-23T03:09:26.986Z,100373.81
2023-01-23T03:11:54.355Z,100372.25
2023-01-23T03:14:22.041Z,100382.16
2023-01-23T03:16:54.079Z,100369.59
2023-01-23T03:19:23.494Z,100383.25
2023-01-23T03:21:51.456Z,100376.75
2023-01-23T03:24:19.045Z,100364.41
2023-01-23T03:26:47.061Z,100379.31
2023-01-23T03:29:39.790Z,100369.28
2023-01-23T03:32:07.286Z,100367.41
2023-01-23T03:34:35.053Z,100359.25
2023-01-23T03:37:03.376Z,100358.78
2023-01-23T03:39:49.903Z,100363.38
2023-01-23T03:42:18.046Z,100353.91
2023-01-23T03:44:45.961Z,100360.59
2023-01-23T03:47:13.211Z,100354.03
2023-01-23T03:49:40.655Z,100344.69
2023-01-23T03:52:08.048Z,100353.16
2023-01-23T03:54:35.356Z,100350.56
2023-01-23T03:57:05.406Z,100357.16
2023-01-23T03:59:41.713Z,100354.09
2023-01-23T04:02:09.220Z,100356.78
2023-01-23T04:04:36.697Z,100360.34
2023-01-23T04:07:05.649Z,100360.91
2023-01-23T04:09:33.266Z,100358.09
2023-01-23T04:12:01.878Z,100358.78
2023-01-23T04:14:37.184Z,100370.94
2023-01-23T04:17:05.365Z,100363.00
2023-01-23T04:19:32.765Z,100369.22
2023-01-23T04:22:00.082Z,100366.81
2023-01-23T04:24:30.957Z,100357.44
2023-01-23T04:26:58.421Z,100370.66
2023-01-23T04:29:26.037Z,100361.38
2023-01-23T04:31:54.221Z,100366.56
2023-01-23T04:34:22.272Z,100366.53
2023-01-23T04:36:50.014Z,100363.84
2023-01-23T04:39:18.007Z,100362.47
2023-01-23T04:41:45.629Z,100373.69
2023-01-23T04:44:23.022Z,100366.63
2023-01-23T04:46:55.370Z,100370.75
2023-01-23T04:49:23.028Z,100362.34
2023-01-23T04:51:51.136Z,100362.50
2023-01-23T04:54:19.108Z,100367.00
2023-01-23T04:56:46.490Z,100366.16
2023-01-23T04:59:15.842Z,100369.72
2023-01-23T05:01:43.685Z,100369.41
2023-01-23T05:04:11.333Z,100371.50
2023-01-23T05:06:38.937Z,100381.44
2023-01-23T05:09:06.445Z,100377.41
2023-01-23T05:11:35.080Z,100383.63
2023-01-23T05:14:03.378Z,100382.94
2023-01-23T05:16:30.914Z,100392.78
2023-01-23T05:18:59.768Z,100381.22
2023-01-23T05:21:27.683Z,100377.03
2023-01-23T05:23:54.929Z,100383.81
2023-01-23T05:26:22.237Z,100385.50
2023-01-23T05:28:49.756Z,100389.34
2023-01-23T05:31:17.096Z,100390.44
2023-01-23T05:33:44.929Z,100393.66
2023-01-23T05:36:12.802Z,100391.25
2023-01-23T05:38:40.449Z,100384.50
2023-01-23T05:41:08.237Z,100389.16
2023-01-23T05:43:38.798Z,100387.50
2023-01-23T05:46:07.188Z,100387.91
2023-01-23T05:48:41.920Z,100389.47
2023-01-23T05:51:10.007Z,100395.69
2023-01-23T05:53:37.532Z,100394.72
2023-01-23T05:56:05.530Z,100398.50
2023-01-23T05:58:33.984Z,100400.69
2023-01-23T06:01:02.591Z,100390.53
2023-01-23T06:03:32.048Z,100394.41
2023-01-23T06:06:00.698Z,100406.19
2023-01-23T06:08:28.152Z,100412.50
2023-01-23T06:10:58.528Z,100410.41
2023-01-23T06:13:26.405Z,100416.22
2023-01-23T06:15:53.707Z,100416.25
2023-01-23T06:18:21.250Z,100412.94
2023-01-23T06:20:48.420Z,100413.78
2023-01-23T06:23:16.685Z,100430.19
2023-01-23T06:25:44.239Z,100426.97
2023-01-23T06:28:12.237Z,100434.78
2023-01-23T06:30:39.442Z,100432.16
2023-01-23T06:33:07.698Z,100433.63
2023-01-23T06:35:35.306Z,100443.28
2023-01-23T06:38:02.525Z,100450.50
2023-01-23T06:40:30.507Z,100449.94
2023-01-23T06:42:59.590Z,100449.28
2023-01-23T06:45:26.786Z,100453.69
2023-01-23T06:47:54.281Z,100461.69
2023-01-23T06:50:22.498Z,100462.78
2023-01-23T06:52:50.112Z,100462.16
2023-01-23T06:55:18.537Z,100463.28
2023-01-23T06:57:45.922Z,100453.50
2023-01-23T07:00:13.608Z,100461.41
2023-01-23T07:02:41.179Z,100471.88
2023-01-23T07:05:08.538Z,100474.91
2023-01-23T07:07:35.794Z,100474.59
2023-01-23T07:10:03.353Z,100478.53
2023-01-23T07:12:30.499Z,100488.75
2023-01-23T07:14:57.850Z,100484.28
2023-01-23T07:17:26.181Z,100490.28
2023-01-23T07:19:53.420Z,100494.28
2023-01-23T07:22:21.223Z,100491.28
2023-01-23T07:24:48.770Z,100488.41
2023-01-23T07:27:16.134Z,100490.34
2023-01-23T07:29:43.416Z,100492.25
2023-01-23T07:32:11.260Z,100493.59
2023-01-23T07:34:38.609Z,100490.78
2023-01-23T07:37:05.870Z,100487.94
2023-01-23T07:39:33.383Z,100500.44
2023-01-23T07:42:00.733Z,100492.34
2023-01-23T07:44:28.249Z,100495.81
2023-01-23T07:46:56.502Z,100494.16
2023-01-23T07:49:23.703Z,100494.00
2023-01-23T07:51:50.890Z,100500.50
2023-01-23T07:54:18.389Z,100487.16
2023-01-23T07:56:45.590Z,100494.06
2023-01-23T07:59:13.273Z,100496.09
2023-01-23T08:01:40.779Z,100496.12
2023-01-23T08:04:08.415Z,100498.94
2023-01-23T08:06:36.598Z,100496.06
2023-01-23T08:09:03.844Z,100497.47
2023-01-23T08:11:33.496Z,100500.91
2023-01-23T08:14:01.565Z,100494.13
2023-01-23T08:16:29.147Z,100492.69
2023-01-23T08:18:56.763Z,100497.78
2023-01-23T08:21:23.932Z,100494.72
2023-01-23T08:23:51.226Z,100492.69
2023-01-23T08:26:18.720Z,100501.72
2023-01-23T08:28:46.037Z,100499.28
2023-01-23T08:31:13.460Z,100498.06
2023-01-23T08:33:41.128Z,100501.97
2023-01-23T08:36:11.163Z,100497.75
2023-01-23T08:38:38.560Z,100494.47
2023-01-23T08:41:06.424Z,100499.22
2023-01-23T08:43:33.744Z,100506.47
2023-01-23T08:46:01.215Z,100504.47
2023-01-23T08:48:28.908Z,100516.88
2023-01-23T08:51:00.471Z,100510.72
2023-01-23T08:53:27.933Z,100516.06
2023-01-23T08:55:58.770Z,100520.84
2023-01-23T08:58:26.092Z,100522.16
2023-01-23T09:00:53.315Z,100515.16
2023-01-23T09:03:21.026Z,100521.91
2023-01-23T09:05:48.353Z,100517.06
2023-01-23T09:08:15.543Z,100526.88
2023-01-23T09:10:43.112Z,100526.78
2023-01-23T09:13:10.448Z,100521.44
2023-01-23T09:15:38.194Z,100522.47
2023-01-23T09:18:05.746Z,100518.25
2023-01-23T09:20:32.997Z,100523.97
2023-01-23T09:23:00.243Z,100522.41
2023-01-23T09:25:27.950Z,100517.91
2023-01-23T09:27:55.347Z,100522.13
2023-01-23T09:30:22.850Z,100516.75
2023-01-23T09:32:50.808Z,100516.69
2023-01-23T09:35:18.005Z,100521.06
2023-01-23T09:38:00.551Z,100508.34
2023-01-23T09:40:28.818Z,100515.47
2023-01-23T09:42:57.149Z,100502.25
2023-01-23T09:45:24.756Z,100507.41
2023-01-23T09:48:12.398Z,100503.53
2023-01-23T09:50:40.938Z,100511.19
2023-01-23T09:53:11.909Z,100512.34
2023-01-23T09:55:39.095Z,100512.06
2023-01-23T09:58:06.271Z,100512.03
2023-01-23T10:00:33.816Z,100509.97
2023-01-23T10:03:01.830Z,100497.53
2023-01-23T10:05:37.033Z,100503.72
2023-01-23T10:08:11.190Z,100513.00
2023-01-23T10:10:47.635Z,100501.25
2023-01-23T10:13:20.985Z,100509.78
2023-01-23T10:15:48.187Z,100502.16
2023-01-23T10:18:26.429Z,100513.62
2023-01-23T10:21:05.296Z,100503.50
2023-01-23T10:24:01.901Z,100510.28
2023-01-23T10:26:34.061Z,100499.69
2023-01-23T10:29:03.822Z,100509.62
2023-01-23T10:31:38.543Z,100508.37
2023-01-23T10:34:06.159Z,100503.16
2023-01-23T10:36:54.046Z,100512.22
2023-01-23T10:39:40.849Z,100516.03
2023-01-23T10:42:11.754Z,100506.31
2023-01-23T10:44:39.286Z,100506.69
2023-01-23T10:47:13.029Z,100509.69
2023-01-23T10:49:44.397Z,100504.56
2023-01-23T10:52:31.868Z,100495.97
2023-01-23T10:54:59.482Z,100506.69
2023-01-23T10:57:27.871Z,100495.53
2023-01-23T10:59:55.482Z,100488.44
2023-01-23T11:02:35.507Z,100485.97
2023-01-23T11:05:03.295Z,100488.06
2023-01-23T11:07:31.405Z,100482.38
2023-01-23T11:09:59.890Z,100471.44
2023-01-23T11:12:28.778Z,100486.34
2023-01-23T11:15:15.204Z,100484.56
2023-01-23T11:17:42.532Z,100488.00
2023-01-23T11:20:11.526Z,100489.16
2023-01-23T11:22:39.658Z,100481.50
2023-01-23T11:25:39.454Z,100475.59
2023-01-23T11:28:27.438Z,100478.22
2023-01-23T11:31:16.034Z,100470.06
2023-01-23T11:33:47.923Z,100461.47
2023-01-23T11:36:22.404Z,100456.91
2023-01-23T11:38:52.881Z,100458.34
2023-01-23T11:41:20.815Z,100457.37
2023-01-23T11:43:47.971Z,100450.47
2023-01-23T11:46:19.022Z,100451.34
2023-01-23T11:49:08.764Z,100452.12
2023-01-23T11:51:42.137Z,100442.31
2023-01-23T11:54:27.790Z,100438.25
2023-01-23T11:57:02.288Z,100443.09
2023-01-23T11:59:36.457Z,100445.34
2023-01-23T12:02:04.100Z,100442.22
2023-01-23T12:04:31.582Z,100437.28
2023-01-23T12:07:17.722Z,100437.25
2023-01-23T12:10:05.600Z,100442.88
2023-01-23T12:12:51.332Z,100439.94
2023-01-23T12:15:25.081Z,100447.19
2023-01-23T12:18:11.989Z,100432.97
2023-01-23T12:20:42.307Z,100437.28
2023-01-23T12:23:37.693Z,100436.06
2023-01-23T12:26:13.828Z,100444.25
2023-01-23T12:28:53.330Z,100440.03
2023-01-23T12:31:24.065Z,100442.12
2023-01-23T12:33:58.031Z,100443.53
2023-01-23T12:36:34.134Z,100438.00
2023-01-23T12:39:02.405Z,100449.72
2023-01-23T12:41:36.355Z,100442.03
2023-01-23T12:44:22.623Z,100446.19
2023-01-23T12:46:50.914Z,100438.03
2023-01-23T12:49:47.690Z,100443.69
2023-01-23T12:52:29.038Z,100448.62
2023-01-23T12:55:03.970Z,100440.19
2023-01-23T12:57:52.825Z,100444.37
2023-01-23T13:00:36.932Z,100450.53
2023-01-23T13:03:04.357Z,100448.72
2023-01-23T13:05:37.559Z,100445.28
2023-01-23T13:08:40.501Z,100449.81
2023-01-23T13:11:40.402Z,100459.50
2023-01-23T13:14:16.300Z,100462.84
2023-01-23T13:16:47.753Z,100467.87
2023-01-23T13:19:41.184Z,100466.97
2023-01-23T13:22:30.462Z,100467.53
2023-01-23T13:25:17.094Z,100466.41
2023-01-23T13:27:45.519Z,100462.38
2023-01-23T13:30:22.416Z,100465.94
2023-01-23T13:32:50.822Z,100461.03
2023-01-23T13:35:37.947Z,100461.00
2023-01-23T13:38:25.485Z,100472.50
2023-01-23T13:41:04.820Z,100468.94
2023-01-23T13:43:50.471Z,100470.56
2023-01-23T13:46:36.690Z,100476.28
2023-01-23T14:21:49.323Z,100492.03
2023-01-23T14:24:23.718Z,100494.09
2023-01-23T14:26:52.070Z,100499.88
2023-01-23T14:29:20.817Z,100488.09
2023-01-23T14:31:48.292Z,100494.19
2023-01-23T14:34:17.945Z,100494.50
2023-01-23T14:36:50.836Z,100495.28
2023-01-23T14:39:18.584Z,100500.09
2023-01-23T14:41:47.545Z,100505.25
2023-01-23T14:44:21.808Z,100500.91
2023-01-23T14:46:52.980Z,100507.41
2023-01-23T14:49:35.543Z,100500.31
2023-01-23T14:52:03.933Z,100499.22
2023-01-23T14:54:33.159Z,100504.41
2023-01-23T14:57:01.351Z,100503.84
2023-01-23T14:59:33.505Z,100503.12
2023-01-23T15:02:05.390Z,100504.87
2023-01-23T15:04:37.848Z,100505.25
2023-01-23T15:07:05.064Z,100508.50
2023-01-23T15:09:38.901Z,100511.75
2023-01-23T15:12:07.756Z,100509.56
2023-01-23T15:14:36.259Z,100508.97
2023-01-23T15:17:04.499Z,100508.03
2023-01-23T15:19:31.985Z,100515.75
2023-01-23T15:22:06.440Z,100520.72
2023-01-23T15:24:33.941Z,100520.72
2023-01-23T15:27:03.691Z,100530.91
2023-01-23T15:29:31.214Z,100532.75
2023-01-23T15:31:59.497Z,100535.97
2023-01-23T15:34:33.266Z,100534.75
2023-01-23T15:37:05.360Z,100529.53
2023-01-23T15:39:51.569Z,100536.25
2023-01-23T15:42:18.982Z,100542.56
2023-01-23T15:44:46.418Z,100544.88
2023-01-23T15:47:13.586Z,100551.88
2023-01-23T15:49:41.079Z,100551.00
2023-01-23T15:52:18.183Z,100554.66
2023-01-23T15:54:45.653Z,100560.28
2023-01-23T15:57:13.230Z,100557.31
2023-01-23T15:59:40.513Z,100561.12
2023-01-23T16:02:12.877Z,100559.31
2023-01-23T16:04:46.064Z,100564.19
2023-01-23T16:07:19.160Z,100556.25
2023-01-23T16:09:49.700Z,100553.34
2023-01-23T16:12:17.826Z,100560.31
2023-01-23T16:14:45.561Z,100553.66
2023-01-23T16:17:17.052Z,100557.75
2023-01-23T16:19:44.759Z,100560.75
2023-01-23T16:22:13.152Z,100554.44
2023-01-23T16:24:40.638Z,100560.62
2023-01-23T16:27:10.464Z,100567.34
2023-01-23T16:29:37.690Z,100566.19
2023-01-23T16:32:05.902Z,100578.28
2023-01-23T16:34:33.258Z,100573.78
2023-01-23T16:37:01.053Z,100588.47
2023-01-23T16:39:32.122Z,100586.97
2023-01-23T16:41:59.653Z,100585.78
2023-01-23T16:44:26.978Z,100587.62
2023-01-23T16:46:54.532Z,100591.00
2023-01-23T16:49:21.861Z,100587.50
2023-01-23T16:51:56.924Z,100591.31
2023-01-23T16:54:24.635Z,100601.38
2023-01-23T16:56:52.821Z,100603.37
2023-01-23T16:59:36.045Z,100606.00
2023-01-23T17:02:12.057Z,100607.84
2023-01-23T17:04:39.481Z,100604.84
2023-01-23T17:07:10.292Z,100614.81
2023-01-23T17:09:37.537Z,100616.09
2023-01-23T17:12:05.053Z,100620.88
2023-01-23T17:14:32.599Z,100616.63
2023-01-23T17:17:04.444Z,100614.56
2023-01-23T17:19:36.562Z,100617.97
2023-01-23T17:22:04.900Z,100619.41
2023-01-23T17:24:32.562Z,100616.81
2023-01-23T17:26:59.857Z,100618.19
2023-01-23T17:29:27.612Z,100612.34
2023-01-23T17:31:54.952Z,100614.34
2023-01-23T17:34:23.143Z,100615.28
2023-01-23T17:36:51.809Z,100619.13
2023-01-23T17:39:20.558Z,100621.22
2023-01-23T17:41:48.023Z,100626.06
2023-01-23T17:44:15.696Z,100620.66
2023-01-23T17:46:43.083Z,100617.78
2023-01-23T17:49:26.362Z,100627.03
2023-01-23T17:51:53.970Z,100629.47
2023-01-23T17:54:21.602Z,100627.53
2023-01-23T17:56:49.343Z,100629.09
2023-01-23T17:59:17.061Z,100631.34
2023-01-23T18:01:44.248Z,100626.94
2023-01-23T18:04:19.009Z,100626.06
2023-01-23T18:06:46.313Z,100625.69
2023-01-23T18:09:14.208Z,100630.75
2023-01-23T18:11:43.068Z,100631.72
2023-01-23T18:14:10.226Z,100623.84
2023-01-23T18:16:45.381Z,100635.38
2023-01-23T18:19:22.180Z,100627.50
2023-01-23T18:21:51.194Z,100632.91
2023-01-23T18:24:26.930Z,100626.75
2023-01-23T18:27:13.477Z,100630.44
2023-01-23T18:29:49.924Z,100631.25
2023-01-23T18:32:23.978Z,100628.22
2023-01-23T18:35:14.696Z,100629.34
2023-01-23T18:37:48.056Z,100632.63
2023-01-23T18:40:17.485Z,100623.09
2023-01-23T18:42:45.950Z,100632.63
2023-01-23T18:45:20.750Z,100632.16
2023-01-23T18:47:54.340Z,100627.00
2023-01-23T18:50:26.940Z,100632.88
2023-01-23T18:52:54.749Z,100644.31
2023-01-23T18:55:40.595Z,100643.59
2023-01-23T18:58:20.680Z,100645.00
2023-01-23T19:00:57.509Z,100645.53
2023-01-23T19:03:28.980Z,100649.06
2023-01-23T19:05:56.421Z,100660.37
2023-01-23T19:08:28.162Z,100648.66
2023-01-23T19:10:56.138Z,100655.13
2023-01-23T19:13:29.997Z,100651.84
2023-01-23T19:16:01.231Z,100660.06
2023-01-23T19:18:41.048Z,100651.00
2023-01-23T19:21:14.922Z,100662.69
2023-01-23T19:23:47.034Z,100667.50
2023-01-23T19:26:15.170Z,100664.34
2023-01-23T19:28:42.732Z,100667.75
2023-01-23T19:31:19.057Z,100676.09
2023-01-23T19:33:47.091Z,100672.06
2023-01-23T19:36:14.456Z,100671.91
2023-01-23T19:38:41.843Z,100677.69
2023-01-23T19:41:19.678Z,100676.94
2023-01-23T19:43:50.858Z,100673.06
2023-01-23T19:46:19.472Z,100680.16
2023-01-23T19:48:46.937Z,100676.50
2023-01-23T19:51:15.138Z,100681.25
2023-01-23T19:53:43.360Z,100686.97
2023-01-23T19:56:11.830Z,100688.06
2023-01-23T19:58:39.701Z,100687.19
2023-01-23T20:01:16.879Z,100679.66
2023-01-23T20:03:44.579Z,100689.25
2023-01-23T20:06:12.561Z,100688.03
2023-01-23T20:08:39.943Z,100689.09
2023-01-23T20:11:09.338Z,100691.22
2023-01-23T20:13:36.550Z,100696.06
2023-01-23T20:16:14.868Z,100692.56
2023-01-23T20:18:42.823Z,100691.81
2023-01-23T20:21:10.409Z,100691.37
2023-01-23T20:23:37.725Z,100693.47
2023-01-23T20:26:05.281Z,100696.34
2023-01-23T20:28:32.741Z,100703.06
2023-01-23T20:31:04.459Z,100702.50
2023-01-23T20:33:32.376Z,100709.09
2023-01-23T20:35:59.782Z,100707.59
2023-01-23T20:38:27.138Z,100713.44
2023-01-23T20:40:54.984Z,100707.91
2023-01-23T20:43:22.315Z,100709.19
2023-01-23T20:45:50.243Z,100707.81
2023-01-23T20:48:18.147Z,100715.37
2023-01-23T20:50:45.612Z,100719.94
2023-01-23T20:53:32.102Z,100711.28
2023-01-23T20:56:03.525Z,100726.09
2023-01-23T20:58:49.972Z,100723.28
2023-01-23T21:01:18.397Z,100726.25
2023-01-23T21:03:48.326Z,100729.56
2023-01-23T21:06:16.428Z,100734.38
2023-01-23T21:08:44.118Z,100729.75
2023-01-23T21:11:15.668Z,100730.31
2023-01-23T21:13:43.081Z,100737.53
2023-01-23T21:16:14.520Z,100739.78
2023-01-23T21:18:44.693Z,100747.94
2023-01-23T21:21:16.529Z,100742.31
2023-01-23T21:23:46.684Z,100747.25
2023-01-23T21:26:14.740Z,100749.22
2023-01-23T21:28:42.094Z,100752.97
2023-01-23T21:31:13.763Z,100759.03
2023-01-23T21:33:44.175Z,100756.09
2023-01-23T21:36:11.710Z,100753.25
2023-01-23T21:38:39.301Z,100764.25
2023-01-23T21:41:06.865Z,100762.97
2023-01-23T21:43:34.190Z,100771.34
2023-01-23T21:46:01.398Z,100764.03
2023-01-23T21:48:29.745Z,100760.94
2023-01-23T21:51:10.274Z,100763.66
2023-01-23T21:53:38.597Z,100764.84
2023-01-23T21:56:06.198Z,100771.31
2023-01-23T21:58:33.737Z,100770.88
2023-01-23T22:01:24.353Z,100771.63
2023-01-23T22:03:51.890Z,100778.41
2023-01-23T22:06:19.233Z,100780.56
2023-01-23T22:08:46.436Z,100784.53
2023-01-23T22:11:13.953Z,100781.44
2023-01-23T22:13:41.177Z,100779.53
2023-01-23T22:16:08.428Z,100782.37
2023-01-23T22:18:35.931Z,100783.00
2023-01-23T22:21:04.181Z,100793.13
2023-01-23T22:23:31.578Z,100791.94
2023-01-23T22:26:00.229Z,100794.38
2023-01-23T22:28:27.517Z,100796.06
2023-01-23T22:30:55.025Z,100796.66
2023-01-23T22:33:23.889Z,100798.44
2023-01-23T22:35:51.148Z,100806.72
2023-01-23T22:38:18.328Z,100808.81
2023-01-23T22:40:45.796Z,100810.34
2023-01-23T22:43:12.972Z,100813.69
2023-01-23T22:45:40.174Z,100816.66
2023-01-23T22:48:07.689Z,100819.78
2023-01-23T22:50:34.914Z,100816.63
2023-01-23T22:53:02.237Z,100818.69
2023-01-23T22:55:29.741Z,100833.13
2023-01-23T22:57:56.911Z,100820.41
2023-01-23T23:00:24.403Z,100828.19
2023-01-23T23:02:51.817Z,100828.22
2023-01-23T23:05:19.245Z,100828.78
2023-01-23T23:07:46.695Z,100832.31
2023-01-23T23:10:14.150Z,100831.00
2023-01-23T23:12:41.351Z,100838.25
2023-01-23T23:15:08.878Z,100840.16
2023-01-23T23:17:36.379Z,100843.72
2023-01-23T23:20:03.662Z,100832.69
2023-01-23T23:22:30.809Z,100836.47
2023-01-23T23:24:58.351Z,100834.50
2023-01-23T23:27:25.545Z,100834.31
2023-01-23T23:29:52.790Z,100837.06
2023-01-23T23:32:20.264Z,100839.47
2023-01-23T23:34:47.611Z,100833.66
2023-01-23T23:37:14.769Z,100831.72
2023-01-23T23:39:43.205Z,100839.16
2023-01-23T23:42:10.391Z,100842.84
2023-01-23T23:44:37.576Z,100837.78
2023-01-23T23:47:05.074Z,100845.28
2023-01-23T23:49:32.481Z,100846.75
2023-01-23T23:51:59.778Z,100850.53
2023-01-23T23:54:27.262Z,100849.72
2023-01-23T23:56:54.493Z,100844.97
2023-01-23T23:59:21.706Z,100848.53
